Time,TemperatureF,DewpointF,PressureIn,WindDirection,WindDirectionDegrees,WindSpeedMPH,WindSpeedGustMPH,Humidity,HourlyPrecipIn,Conditions,Clouds,dailyrainin,SoftwareType,DateUTC
2013-09-26 00:05:00,61.3,61.0,29.75,SSE,157,0.0,-999.0,99,-99.99,,,0.00,Acu-Link.com,2013-09-26 04:05:00,
2013-09-26 00:20:00,61.3,61.0,29.74,North,0,0.0,-999.0,99,-99.99,,,0.00,Acu-Link.com,2013-09-26 04:20:00,
2013-09-26 00:36:00,61.5,61.2,29.76,North,0,0.0,-999.0,99,-99.99,,,0.00,Acu-Link.com,2013-09-26 04:36:00,
2013-09-26 00:51:00,61.2,60.9,29.76,North,0,0.0,-999.0,99,-99.99,,,0.00,Acu-Link.com,2013-09-26 04:51:00,
2013-09-26 01:06:00,61.3,61.0,29.76,North,0,0.0,-999.0,99,-99.99,,,0.00,Acu-Link.com,2013-09-26 05:06:00,
2013-09-26 01:21:00,61.3,61.0,29.75,North,0,0.0,-999.0,99,-99.99,,,0.00,Acu-Link.com,2013-09-26 05:21:00,
2013-09-26 01:37:00,61.2,60.9,29.75,North,0,0.0,-999.0,99,-99.99,,,0.00,Acu-Link.com,2013-09-26 05:37:00,
2013-09-26 01:52:00,61.0,60.7,29.74,North,0,0.0,-999.0,99,-99.99,,,0.00,Acu-Link.com,2013-09-26 05:52:00,
2013-09-26 02:07:00,60.6,60.3,29.74,North,0,0.0,-999.0,99,-99.99,,,0.00,Acu-Link.com,2013-09-26 06:07:00,
2013-09-26 02:22:00,60.6,60.3,29.74,North,0,0.0,-999.0,99,-99.99,,,0.00,Acu-Link.com,2013-09-26 06:22:00,
2013-09-26 02:37:00,60.6,60.3,29.74,North,0,0.0,-999.0,99,-99.99,,,0.00,Acu-Link.com,2013-09-26 06:37:00,
2013-09-26 02:53:00,60.4,60.1,29.74,North,0,0.0,-999.0,99,-99.99,,,0.00,Acu-Link.com,2013-09-26 06:53:00,
2013-09-26 03:08:00,60.4,60.1,29.74,North,0,0.0,-999.0,99,-99.99,,,0.00,Acu-Link.com,2013-09-26 07:08:00,
2013-09-26 03:23:00,60.3,60.0,29.73,North,0,0.0,-999.0,99,-99.99,,,0.00,Acu-Link.com,2013-09-26 07:23:00,
2013-09-26 03:38:00,60.3,60.0,29.73,North,0,0.0,-999.0,99,-99.99,,,0.00,Acu-Link.com,2013-09-26 07:38:00,
2013-09-26 03:53:00,60.1,59.5,29.73,North,0,0.0,-999.0,98,-99.99,,,0.00,Acu-Link.com,2013-09-26 07:53:00,
2013-09-26 04:09:00,60.1,59.5,29.73,North,0,1.7,-999.0,98,-99.99,,,0.00,Acu-Link.com,2013-09-26 08:09:00,
2013-09-26 04:24:00,60.3,59.7,29.73,North,0,1.1,-999.0,98,-99.99,,,0.00,Acu-Link.com,2013-09-26 08:24:00,
2013-09-26 04:39:00,60.3,59.4,29.74,North,0,0.0,-999.0,97,-99.99,,,0.00,Acu-Link.com,2013-09-26 08:39:00,
2013-09-26 04:55:00,60.4,59.5,29.74,North,0,0.0,-999.0,97,-99.99,,,0.00,Acu-Link.com,2013-09-26 08:55:00,
2013-09-26 05:10:00,60.3,60.0,29.74,North,0,0.0,-999.0,99,-99.99,,,0.00,Acu-Link.com,2013-09-26 09:10:00,
2013-09-26 05:26:00,60.1,59.8,29.74,North,0,0.0,-999.0,99,-99.99,,,0.00,Acu-Link.com,2013-09-26 09:26:00,
2013-09-26 05:41:00,60.1,59.8,29.74,North,0,0.0,-999.0,99,-99.99,,,0.00,Acu-Link.com,2013-09-26 09:41:00,
2013-09-26 05:56:00,59.4,59.1,29.75,North,0,0.0,-999.0,99,-99.99,,,0.00,Acu-Link.com,2013-09-26 09:56:00,
2013-09-26 06:12:00,59.0,58.7,29.76,North,0,0.0,-999.0,99,-99.99,,,0.00,Acu-Link.com,2013-09-26 10:12:00,
2013-09-26 06:27:00,58.3,58.0,29.76,North,0,0.0,-999.0,99,-99.99,,,0.00,Acu-Link.com,2013-09-26 10:27:00,
2013-09-26 06:42:00,57.7,57.4,29.76,North,0,0.0,-999.0,99,-99.99,,,0.00,Acu-Link.com,2013-09-26 10:42:00,
2013-09-26 06:57:00,57.4,57.1,29.76,North,0,0.0,-999.0,99,-99.99,,,0.00,Acu-Link.com,2013-09-26 10:57:00,
2013-09-26 07:13:00,56.8,56.5,29.76,North,0,0.0,-999.0,99,-99.99,,,0.00,Acu-Link.com,2013-09-26 11:13:00,
2013-09-26 07:28:00,56.7,56.4,29.77,North,0,0.0,-999.0,99,-99.99,,,0.00,Acu-Link.com,2013-09-26 11:28:00,
2013-09-26 07:43:00,55.8,55.5,29.78,North,0,0.0,-999.0,99,-99.99,,,0.00,Acu-Link.com,2013-09-26 11:43:00,
2013-09-26 07:59:00,55.8,55.5,29.78,North,0,0.0,-999.0,99,-99.99,,,0.00,Acu-Link.com,2013-09-26 11:59:00,
2013-09-26 08:14:00,55.6,55.3,29.78,North,0,0.0,-999.0,99,-99.99,,,0.00,Acu-Link.com,2013-09-26 12:14:00,
2013-09-26 08:29:00,56.7,56.4,29.79,North,0,0.0,-999.0,99,-99.99,,,0.00,Acu-Link.com,2013-09-26 12:29:00,
2013-09-26 08:44:00,58.6,58.3,29.80,North,0,0.0,-999.0,99,-99.99,,,0.00,Acu-Link.com,2013-09-26 12:44:00,
2013-09-26 09:00:00,61.7,61.1,29.80,North,0,0.0,-999.0,98,-99.99,,,0.00,Acu-Link.com,2013-09-26 13:00:00,
2013-09-26 09:15:00,63.5,61.4,29.80,North,0,0.0,-999.0,93,-99.99,,,0.00,Acu-Link.com,2013-09-26 13:15:00,
2013-09-26 09:30:00,65.5,62.8,29.81,North,0,0.0,-999.0,91,-99.99,,,0.00,Acu-Link.com,2013-09-26 13:30:00,
2013-09-26 09:45:00,67.3,60.9,29.81,ESE,112,1.1,-999.0,80,-99.99,,,0.00,Acu-Link.com,2013-09-26 13:45:00,
2013-09-26 10:01:00,69.3,61.4,29.82,East,90,0.0,-999.0,76,-99.99,,,0.00,Acu-Link.com,2013-09-26 14:01:00,
2013-09-26 10:16:00,70.0,60.5,29.82,NNE,22,3.2,-999.0,72,-99.99,,,0.00,Acu-Link.com,2013-09-26 14:16:00,
2013-09-26 10:31:00,70.2,60.3,29.83,East,90,1.7,-999.0,71,-99.99,,,0.00,Acu-Link.com,2013-09-26 14:31:00,
2013-09-26 10:46:00,71.1,60.0,29.83,NNW,337,2.2,-999.0,68,-99.99,,,0.00,Acu-Link.com,2013-09-26 14:46:00,
2013-09-26 11:01:00,70.5,61.0,29.83,SW,225,2.2,-999.0,72,-99.99,,,0.00,Acu-Link.com,2013-09-26 15:01:00,
2013-09-26 11:17:00,72.0,61.3,29.83,West,270,2.7,-999.0,69,-99.99,,,0.00,Acu-Link.com,2013-09-26 15:17:00,
2013-09-26 11:32:00,72.7,60.7,29.83,NE,45,2.7,-999.0,66,-99.99,,,0.00,Acu-Link.com,2013-09-26 15:32:00,
2013-09-26 11:47:00,72.9,60.9,29.83,ESE,112,0.0,-999.0,66,-99.99,,,0.00,Acu-Link.com,2013-09-26 15:47:00,
2013-09-26 12:02:00,72.5,59.6,29.83,East,90,4.2,-999.0,64,-99.99,,,0.00,Acu-Link.com,2013-09-26 16:02:00,
2013-09-26 12:17:00,69.8,59.2,29.83,North,0,0.0,-999.0,69,-99.99,,,0.00,Acu-Link.com,2013-09-26 16:17:00,
2013-09-26 12:33:00,70.9,59.4,29.83,NNW,337,2.7,-999.0,67,-99.99,,,0.00,Acu-Link.com,2013-09-26 16:33:00,
2013-09-26 12:48:00,70.5,59.0,29.82,WSW,247,2.2,-999.0,67,-99.99,,,0.00,Acu-Link.com,2013-09-26 16:48:00,
2013-09-26 13:03:00,72.1,60.1,29.82,NNW,337,3.2,-999.0,66,-99.99,,,0.00,Acu-Link.com,2013-09-26 17:03:00,
2013-09-26 13:18:00,71.6,58.8,29.81,West,270,0.0,-999.0,64,-99.99,,,0.00,Acu-Link.com,2013-09-26 17:18:00,
2013-09-26 13:33:00,74.1,59.8,29.80,NNW,337,3.7,-999.0,61,-99.99,,,0.00,Acu-Link.com,2013-09-26 17:33:00,
2013-09-26 13:49:00,73.8,59.0,29.81,ESE,112,0.0,-999.0,60,-99.99,,,0.00,Acu-Link.com,2013-09-26 17:49:00,
2013-09-26 14:04:00,74.5,59.2,29.80,SSE,157,1.7,-999.0,59,-99.99,,,0.00,Acu-Link.com,2013-09-26 18:04:00,
2013-09-26 14:19:00,75.0,60.2,29.79,West,270,2.7,-999.0,60,-99.99,,,0.00,Acu-Link.com,2013-09-26 18:19:00,
2013-09-26 14:34:00,75.4,59.1,29.79,NNE,22,4.7,-999.0,57,-99.99,,,0.00,Acu-Link.com,2013-09-26 18:34:00,
2013-09-26 14:50:00,74.8,57.0,29.78,SSE,157,1.7,-999.0,54,-99.99,,,0.00,Acu-Link.com,2013-09-26 18:50:00,
2013-09-26 15:05:00,75.9,57.0,29.79,SW,225,0.0,-999.0,52,-99.99,,,0.00,Acu-Link.com,2013-09-26 19:05:00,
2013-09-26 15:20:00,74.8,53.8,29.79,South,180,2.7,-999.0,48,-99.99,,,0.00,Acu-Link.com,2013-09-26 19:20:00,
2013-09-26 15:35:00,74.5,55.2,29.78,NNW,337,0.0,-999.0,51,-99.99,,,0.00,Acu-Link.com,2013-09-26 19:35:00,
2013-09-26 15:50:00,75.7,55.2,29.78,NE,45,2.7,-999.0,49,-99.99,,,0.00,Acu-Link.com,2013-09-26 19:50:00,
2013-09-26 16:06:00,76.1,57.2,29.79,West,270,1.7,-999.0,52,-99.99,,,0.00,Acu-Link.com,2013-09-26 20:06:00,
2013-09-26 16:21:00,76.3,56.3,29.78,NNW,337,3.2,-999.0,50,-99.99,,,0.00,Acu-Link.com,2013-09-26 20:21:00,
2013-09-26 16:36:00,76.6,55.4,29.78,WSW,247,1.7,-999.0,48,-99.99,,,0.00,Acu-Link.com,2013-09-26 20:36:00,
2013-09-26 16:51:00,76.1,56.1,29.78,ESE,112,0.0,-999.0,50,-99.99,,,0.00,Acu-Link.com,2013-09-26 20:51:00,
2013-09-26 17:06:00,75.4,58.1,29.78,ESE,112,2.2,-999.0,55,-99.99,,,0.00,Acu-Link.com,2013-09-26 21:06:00,
2013-09-26 17:22:00,75.0,59.2,29.79,SW,225,0.0,-999.0,58,-99.99,,,0.00,Acu-Link.com,2013-09-26 21:22:00,
2013-09-26 17:37:00,75.6,58.8,29.79,ESE,112,2.2,-999.0,56,-99.99,,,0.00,Acu-Link.com,2013-09-26 21:37:00,
2013-09-26 17:52:00,75.2,60.3,29.80,SSW,202,0.0,-999.0,60,-99.99,,,0.00,Acu-Link.com,2013-09-26 21:52:00,
2013-09-26 18:07:00,77.0,61.1,29.80,South,180,0.0,-999.0,58,-99.99,,,0.00,Acu-Link.com,2013-09-26 22:07:00,
2013-09-26 18:22:00,77.0,61.1,29.80,South,180,0.0,-999.0,58,-99.99,,,0.00,Acu-Link.com,2013-09-26 22:22:00,
2013-09-26 18:38:00,75.4,61.0,29.81,SSE,157,0.0,-999.0,61,-99.99,,,0.00,Acu-Link.com,2013-09-26 22:38:00,
2013-09-26 18:53:00,72.7,61.5,29.82,SE,135,0.0,-999.0,68,-99.99,,,0.00,Acu-Link.com,2013-09-26 22:53:00,
2013-09-26 19:08:00,69.6,61.3,29.81,SE,135,0.0,-999.0,75,-99.99,,,0.00,Acu-Link.com,2013-09-26 23:08:00,
2013-09-26 19:23:00,67.3,61.6,29.82,SE,135,0.0,-999.0,82,-99.99,,,0.00,Acu-Link.com,2013-09-26 23:23:00,
2013-09-26 19:38:00,65.3,61.3,29.83,SE,135,0.0,-999.0,87,-99.99,,,0.00,Acu-Link.com,2013-09-26 23:38:00,
2013-09-26 19:54:00,63.9,60.9,29.83,SE,135,0.0,-999.0,90,-99.99,,,0.00,Acu-Link.com,2013-09-26 23:54:00,
2013-09-26 20:24:00,61.7,59.7,29.84,SE,135,0.0,-999.0,93,-99.99,,,0.00,Acu-Link.com,2013-09-27 00:24:00,
2013-09-26 20:39:00,60.8,59.4,29.84,SE,135,0.0,-999.0,95,-99.99,,,0.00,Acu-Link.com,2013-09-27 00:39:00,
2013-09-26 20:55:00,60.1,58.7,29.86,SE,135,0.0,-999.0,95,-99.99,,,0.00,Acu-Link.com,2013-09-27 00:55:00,
2013-09-26 21:10:00,59.7,58.3,29.86,SE,135,0.0,-999.0,95,-99.99,,,0.00,Acu-Link.com,2013-09-27 01:10:00,
2013-09-26 21:25:00,59.7,57.7,29.86,SE,135,0.0,-999.0,93,-99.99,,,0.00,Acu-Link.com,2013-09-27 01:25:00,
2013-09-26 21:40:00,59.7,57.7,29.87,SSE,157,0.0,-999.0,93,-99.99,,,0.00,Acu-Link.com,2013-09-27 01:40:00,
2013-09-26 21:55:00,59.4,58.3,29.87,SSE,157,0.0,-999.0,96,-99.99,,,0.00,Acu-Link.com,2013-09-27 01:55:00,
2013-09-26 22:11:00,58.5,57.4,29.88,SSE,157,0.0,-999.0,96,-99.99,,,0.00,Acu-Link.com,2013-09-27 02:11:00,
2013-09-26 22:26:00,57.9,57.1,29.88,SSE,157,0.0,-999.0,97,-99.99,,,0.00,Acu-Link.com,2013-09-27 02:26:00,
2013-09-26 22:41:00,57.2,56.4,29.89,SSE,157,0.0,-999.0,97,-99.99,,,0.00,Acu-Link.com,2013-09-27 02:41:00,
2013-09-26 22:56:00,56.7,56.1,29.88,SSE,157,0.0,-999.0,98,-99.99,,,0.00,Acu-Link.com,2013-09-27 02:56:00,
2013-09-26 23:11:00,56.1,55.8,29.89,SSE,157,0.0,-999.0,99,-99.99,,,0.00,Acu-Link.com,2013-09-27 03:11:00,
2013-09-26 23:27:00,55.6,55.3,29.89,SSE,157,0.0,-999.0,99,-99.99,,,0.00,Acu-Link.com,2013-09-27 03:27:00,
2013-09-26 23:42:00,55.4,55.1,29.89,SSE,157,0.0,-999.0,99,-99.99,,,0.00,Acu-Link.com,2013-09-27 03:42:00,
2013-09-26 23:57:00,55.0,54.7,29.90,SSE,157,0.0,-999.0,99,-99.99,,,0.00,Acu-Link.com,2013-09-27 03:57:00,